createdAt,value
2018-03-22T00:02:24.459Z,64.42
2018-03-22T00:04:53.124Z,65.21
2018-03-22T00:07:20.600Z,64.83
2018-03-22T00:09:48.073Z,65.55
2018-03-22T00:12:15.806Z,68.25
2018-03-22T00:14:43.269Z,67.36
2018-03-22T00:17:10.744Z,65.20
2018-03-22T00:19:38.505Z,65.43
2018-03-22T00:22:06.340Z,65.46
2018-03-22T00:24:33.802Z,66.65
2018-03-22T00:27:01.706Z,67.15
2018-03-22T00:29:29.168Z,65.55
2018-03-22T00:31:56.636Z,64.94
2018-03-22T00:34:24.483Z,68.55
2018-03-22T00:36:51.937Z,68.53
2018-03-22T00:39:19.447Z,67.66
2018-03-22T00:41:47.162Z,67.82
2018-03-22T00:44:14.638Z,67.10
2018-03-22T00:46:42.093Z,66.05
2018-03-22T00:49:09.870Z,66.13
2018-03-22T00:51:37.316Z,69.05
2018-03-22T00:54:04.777Z,65.98
2018-03-22T00:56:32.533Z,69.08
2018-03-22T00:58:59.997Z,66.59
2018-03-22T01:01:27.460Z,65.78
2018-03-22T01:03:55.217Z,66.25
2018-03-22T01:06:22.675Z,66.21
2018-03-22T01:08:50.138Z,64.78
2018-03-22T01:11:17.913Z,66.60
2018-03-22T01:13:45.374Z,67.30
2018-03-22T01:16:12.833Z,64.82
2018-03-22T01:18:40.602Z,64.09
2018-03-22T01:21:08.066Z,63.43
2018-03-22T01:23:35.897Z,65.66
2018-03-22T01:26:03.900Z,63.41
2018-03-22T01:28:31.357Z,58.97
2018-03-22T01:30:58.818Z,55.43
2018-03-22T01:33:26.581Z,57.38
2018-03-22T01:35:54.040Z,60.16
2018-03-22T01:38:21.502Z,63.06
2018-03-22T01:40:49.279Z,63.48
2018-03-22T01:43:16.748Z,65.36
2018-03-22T01:45:44.237Z,66.04
2018-03-22T01:48:11.956Z,65.51
2018-03-22T01:50:39.421Z,65.90
2018-03-22T01:53:13.648Z,66.83
2018-03-22T01:55:41.102Z,66.12
2018-03-22T01:58:08.570Z,65.82
2018-03-22T02:00:36.633Z,65.85
2018-03-22T02:03:05.168Z,65.91
2018-03-22T02:05:32.633Z,66.34
2018-03-22T02:08:00.557Z,66.51
2018-03-22T02:10:28.014Z,69.85
2018-03-22T02:12:55.475Z,69.30
2018-03-22T02:15:23.239Z,69.45
2018-03-22T02:20:32.902Z,66.28
2018-03-22T02:23:00.366Z,66.92
2018-03-22T02:25:28.201Z,67.32
2018-03-22T02:27:55.901Z,67.76
2018-03-22T02:30:23.364Z,68.83
2018-03-22T02:32:50.822Z,68.74
2018-03-22T02:35:18.893Z,68.19
2018-03-22T02:37:46.352Z,67.31
2018-03-22T02:40:13.849Z,69.23
2018-03-22T02:42:41.595Z,69.42
2018-03-22T02:45:09.681Z,68.71
2018-03-22T02:47:37.147Z,67.25
2018-03-22T02:50:04.824Z,67.65
2018-03-22T02:52:32.281Z,68.47
2018-03-22T02:54:59.740Z,69.97
2018-03-22T02:57:27.815Z,69.19
2018-03-22T03:02:37.545Z,64.07
2018-03-22T03:05:05.011Z,65.55
2018-03-22T03:07:32.470Z,66.17
2018-03-22T03:10:00.228Z,64.36
2018-03-22T03:12:27.694Z,63.60
2018-03-22T03:14:55.160Z,63.86
2018-03-22T03:17:22.914Z,62.87
2018-03-22T03:19:50.395Z,61.07
2018-03-22T03:22:17.857Z,61.03
2018-03-22T03:24:45.606Z,62.48
2018-03-22T03:27:13.762Z,61.90
2018-03-22T03:29:41.235Z,63.47
2018-03-22T03:32:08.870Z,63.03
2018-03-22T03:34:36.338Z,61.42
2018-03-22T03:37:03.889Z,63.39
2018-03-22T03:39:31.589Z,63.86
2018-03-22T03:41:59.056Z,63.74
2018-03-22T03:44:26.512Z,64.29
2018-03-22T03:46:54.277Z,64.08
2018-03-22T03:49:21.737Z,64.25
2018-03-22T03:51:49.574Z,62.82
2018-03-22T03:54:17.569Z,65.25
2018-03-22T03:56:45.028Z,64.13
2018-03-22T03:59:12.485Z,63.82
2018-03-22T04:01:40.264Z,63.86
2018-03-22T04:04:07.732Z,62.65
2018-03-22T04:06:35.190Z,62.56
2018-03-22T04:09:02.946Z,62.81
2018-03-22T04:11:30.402Z,60.49
2018-03-22T04:13:57.866Z,62.41
2018-03-22T04:16:25.587Z,62.28
2018-03-22T04:18:53.050Z,62.03
2018-03-22T04:21:20.599Z,61.46
2018-03-22T04:23:48.626Z,61.54
2018-03-22T04:26:16.077Z,62.50
2018-03-22T04:28:43.984Z,61.44
2018-03-22T04:31:11.635Z,60.74
2018-03-22T04:33:39.098Z,61.16
2018-03-22T04:36:06.552Z,62.83
2018-03-22T04:38:34.310Z,63.60
2018-03-22T04:41:01.779Z,64.18
2018-03-22T04:43:29.538Z,64.45
2018-03-22T04:45:57.314Z,62.94
2018-03-22T04:48:24.770Z,63.87
2018-03-22T04:50:52.228Z,64.22
2018-03-22T04:53:19.983Z,65.34
2018-03-22T04:55:47.443Z,64.97
2018-03-22T04:58:14.918Z,63.67
2018-03-22T05:00:42.685Z,63.49
2018-03-22T05:03:10.177Z,62.93
2018-03-22T05:05:37.641Z,63.75
2018-03-22T05:08:05.437Z,62.96
2018-03-22T05:10:32.917Z,64.47
2018-03-22T05:13:00.373Z,63.02
2018-03-22T05:15:28.032Z,62.84
2018-03-22T05:17:55.490Z,63.06
2018-03-22T05:20:22.952Z,65.55
2018-03-22T05:22:50.746Z,64.97
2018-03-22T05:25:18.217Z,64.41
2018-03-22T05:27:45.677Z,63.57
2018-03-22T05:30:13.785Z,63.60
2018-03-22T05:32:41.242Z,63.38
2018-03-22T05:35:08.713Z,63.78
2018-03-22T05:37:36.734Z,63.67
2018-03-22T05:40:04.194Z,62.26
2018-03-22T05:42:31.658Z,63.94
2018-03-22T05:44:59.725Z,65.71
2018-03-22T05:47:27.220Z,63.00
2018-03-22T05:49:54.686Z,63.55
2018-03-22T05:52:22.415Z,64.49
2018-03-22T05:54:49.872Z,63.19
2018-03-22T05:57:17.332Z,62.54
2018-03-22T05:59:45.127Z,60.85
2018-03-22T06:02:12.590Z,61.83
2018-03-22T06:04:40.076Z,62.76
2018-03-22T06:07:07.737Z,63.02
2018-03-22T06:09:35.218Z,61.97
2018-03-22T06:12:02.682Z,61.28
2018-03-22T06:14:30.477Z,60.48
2018-03-22T06:16:57.937Z,61.05
2018-03-22T06:19:25.410Z,61.13
2018-03-22T06:21:53.171Z,61.41
2018-03-22T06:24:20.629Z,61.91
2018-03-22T06:26:48.259Z,60.86
2018-03-22T06:29:16.151Z,60.01
2018-03-22T06:31:43.953Z,61.86
2018-03-22T06:34:11.405Z,67.05
2018-03-22T06:36:39.164Z,62.16
2018-03-22T06:39:06.641Z,62.80
2018-03-22T06:41:34.108Z,61.77
2018-03-22T06:44:02.139Z,61.76
2018-03-22T06:46:29.592Z,60.45
2018-03-22T06:48:57.066Z,60.66
2018-03-22T06:51:24.786Z,68.80
2018-03-22T06:53:52.249Z,68.50
2018-03-22T06:56:19.697Z,60.94
2018-03-22T06:58:47.523Z,61.57
2018-03-22T07:01:14.978Z,62.01
2018-03-22T07:03:42.434Z,60.34
2018-03-22T07:06:10.201Z,62.76
2018-03-22T07:08:37.658Z,65.74
2018-03-22T07:11:05.118Z,63.10
2018-03-22T07:13:32.878Z,62.96
2018-03-22T07:16:00.329Z,60.89
2018-03-22T07:18:27.785Z,59.94
2018-03-22T07:20:55.569Z,60.65
2018-03-22T07:23:23.030Z,59.99
2018-03-22T07:25:50.494Z,62.22
2018-03-22T07:28:18.444Z,59.96
2018-03-22T07:30:45.902Z,59.54
2018-03-22T07:33:13.865Z,60.22
2018-03-22T07:35:41.876Z,59.88
2018-03-22T07:38:09.342Z,59.59
2018-03-22T07:40:36.801Z,59.64
2018-03-22T07:43:10.081Z,58.87
2018-03-22T07:45:37.538Z,60.09
2018-03-22T07:48:04.994Z,60.81
2018-03-22T07:50:32.830Z,59.52
2018-03-22T07:53:00.293Z,61.13
2018-03-22T07:55:27.748Z,61.23
2018-03-22T07:57:55.469Z,60.74
2018-03-22T08:00:22.969Z,59.87
2018-03-22T08:02:50.436Z,57.76
2018-03-22T08:05:18.158Z,60.81
2018-03-22T08:07:45.621Z,57.79
2018-03-22T08:10:13.086Z,60.19
2018-03-22T08:12:40.851Z,58.07
2018-03-22T08:15:08.314Z,56.45
2018-03-22T08:17:35.765Z,56.61
2018-03-22T08:20:03.521Z,56.00
2018-03-22T08:22:30.984Z,56.02
2018-03-22T08:24:58.452Z,55.61
2018-03-22T08:27:26.217Z,58.52
2018-03-22T08:29:53.677Z,57.88
2018-03-22T08:32:21.136Z,55.43
2018-03-22T08:34:50.080Z,59.09
2018-03-22T08:37:17.534Z,53.46
2018-03-22T08:39:44.990Z,54.03
2018-03-22T08:42:12.820Z,55.24
2018-03-22T08:44:40.278Z,56.34
2018-03-22T08:47:07.741Z,56.05
2018-03-22T08:49:35.510Z,54.17
2018-03-22T08:52:02.979Z,54.66
2018-03-22T08:54:30.440Z,56.37
2018-03-22T08:56:58.150Z,55.45
2018-03-22T08:59:25.625Z,57.56
2018-03-22T09:01:53.089Z,56.93
2018-03-22T09:04:20.877Z,55.41
2018-03-22T09:06:48.333Z,57.51
2018-03-22T09:09:15.798Z,55.67
2018-03-22T09:11:43.873Z,57.69
2018-03-22T09:14:11.337Z,56.53
2018-03-22T09:16:38.806Z,56.19
2018-03-22T09:19:06.878Z,52.64
2018-03-22T09:21:34.343Z,56.18
2018-03-22T09:24:01.805Z,56.73
2018-03-22T09:26:29.556Z,56.51
2018-03-22T09:28:57.024Z,55.76
2018-03-22T09:31:24.473Z,54.96
2018-03-22T09:33:52.549Z,51.36
2018-03-22T09:36:20.068Z,51.29
2018-03-22T09:38:47.522Z,50.95
2018-03-22T09:41:15.859Z,49.42
2018-03-22T09:43:43.309Z,50.82
2018-03-22T09:46:10.778Z,49.71
2018-03-22T09:48:38.536Z,51.25
2018-03-22T09:51:06.001Z,49.37
2018-03-22T09:53:33.458Z,48.64
2018-03-22T09:56:01.224Z,48.75
2018-03-22T09:58:28.696Z,51.39
2018-03-22T10:00:56.537Z,48.84
2018-03-22T10:03:24.529Z,49.39
2018-03-22T10:05:52.373Z,48.90
2018-03-22T10:08:19.834Z,46.74
2018-03-22T10:10:47.856Z,45.59
2018-03-22T10:13:15.311Z,47.55
2018-03-22T10:15:42.768Z,47.99
2018-03-22T10:18:10.510Z,47.99
2018-03-22T10:20:37.973Z,49.10
2018-03-22T10:23:05.438Z,47.21
2018-03-22T10:25:33.205Z,49.93
2018-03-22T10:28:00.663Z,49.50
2018-03-22T10:30:28.127Z,45.34
2018-03-22T10:32:55.889Z,44.00
2018-03-22T10:35:23.422Z,45.29
2018-03-22T10:37:51.206Z,43.91
2018-03-22T10:40:19.201Z,44.99
2018-03-22T10:42:46.661Z,46.35
2018-03-22T10:45:14.120Z,47.75
2018-03-22T10:47:41.874Z,47.05
2018-03-22T10:50:09.337Z,43.62
2018-03-22T10:52:36.809Z,43.71
2018-03-22T10:55:04.565Z,40.06
2018-03-22T10:57:32.030Z,39.07
2018-03-22T10:59:59.489Z,42.26
2018-03-22T11:02:32.783Z,39.91
2018-03-22T11:05:00.246Z,38.41
2018-03-22T11:07:27.708Z,37.92
2018-03-22T11:09:55.680Z,38.40
2018-03-22T11:12:23.137Z,39.30
2018-03-22T11:14:50.601Z,37.67
2018-03-22T11:17:18.466Z,37.59
2018-03-22T11:19:45.935Z,37.90
2018-03-22T11:22:13.408Z,37.03
2018-03-22T11:24:41.137Z,36.61
2018-03-22T11:27:08.861Z,36.17
2018-03-22T11:29:36.329Z,37.58
2018-03-22T11:32:04.141Z,35.92
2018-03-22T11:34:31.603Z,35.80
2018-03-22T11:36:59.069Z,35.92
2018-03-22T11:39:28.985Z,33.41
2018-03-22T11:41:56.450Z,33.05
2018-03-22T11:44:23.909Z,33.49
2018-03-22T11:46:51.669Z,32.95
2018-03-22T11:49:19.145Z,33.36
2018-03-22T11:51:46.629Z,30.88
2018-03-22T11:54:14.353Z,29.27
2018-03-22T11:56:41.811Z,30.68
2018-03-22T11:59:09.289Z,33.41
2018-03-22T12:01:36.969Z,29.38
2018-03-22T12:04:04.439Z,33.70
2018-03-22T12:06:31.907Z,30.89
2018-03-22T12:08:59.733Z,31.58
2018-03-22T12:11:27.211Z,30.32
2018-03-22T12:13:54.675Z,30.81
2018-03-22T12:16:22.405Z,29.58
2018-03-22T12:18:49.873Z,30.35
2018-03-22T12:21:17.334Z,30.34
2018-03-22T12:23:45.112Z,31.57
2018-03-22T12:26:12.568Z,29.74
2018-03-22T12:28:40.071Z,28.22
2018-03-22T12:31:07.790Z,30.23
2018-03-22T12:33:35.262Z,31.03
2018-03-22T12:36:02.720Z,31.19
2018-03-22T12:38:30.470Z,30.41
2018-03-22T12:40:58.630Z,29.74
2018-03-22T12:43:26.122Z,29.50
2018-03-22T12:45:54.080Z,30.69
2018-03-22T12:48:21.541Z,27.89
2018-03-22T12:50:49.005Z,28.77
2018-03-22T12:53:16.726Z,31.64
2018-03-22T12:55:44.180Z,30.00
2018-03-22T12:58:11.647Z,30.01
2018-03-22T13:00:39.462Z,28.46
2018-03-22T13:03:06.945Z,28.06
2018-03-22T13:05:34.417Z,28.38
2018-03-22T13:08:02.153Z,28.53
2018-03-22T13:10:29.620Z,28.68
2018-03-22T13:12:57.084Z,28.91
2018-03-22T13:15:24.833Z,28.28
2018-03-22T13:17:52.302Z,27.88
2018-03-22T13:20:19.771Z,28.54
2018-03-22T13:22:47.562Z,29.36
2018-03-22T13:25:15.026Z,27.70
2018-03-22T13:27:42.498Z,28.80
2018-03-22T13:30:10.506Z,26.74
2018-03-22T13:32:37.973Z,27.09
2018-03-22T13:35:05.427Z,25.61
2018-03-22T13:37:33.110Z,26.75
2018-03-22T13:40:00.578Z,26.84
2018-03-22T13:42:28.518Z,24.37
2018-03-22T13:44:56.498Z,26.22
2018-03-22T13:47:24.110Z,26.58
2018-03-22T13:49:51.577Z,28.96
2018-03-22T13:52:19.500Z,30.86
2018-03-22T13:54:46.957Z,29.87
2018-03-22T13:57:16.009Z,28.05
2018-03-22T13:59:43.601Z,31.48
2018-03-22T14:02:11.063Z,30.81
2018-03-22T14:04:38.535Z,30.33
2018-03-22T14:07:06.658Z,29.14
2018-03-22T14:09:34.119Z,29.33
2018-03-22T14:12:01.582Z,28.77
2018-03-22T14:14:29.401Z,27.20
2018-03-22T14:16:56.880Z,28.75
2018-03-22T14:19:24.345Z,29.86
2018-03-22T14:21:52.397Z,28.90
2018-03-22T14:24:19.861Z,29.25
2018-03-22T14:26:47.361Z,30.45
2018-03-22T14:29:15.310Z,28.78
2018-03-22T14:31:42.768Z,29.58
2018-03-22T14:34:10.230Z,30.21
2018-03-22T14:36:38.022Z,29.90
2018-03-22T14:39:05.502Z,29.15
2018-03-22T14:41:32.968Z,29.50
2018-03-22T14:44:01.678Z,29.21
2018-03-22T14:46:29.142Z,28.33
2018-03-22T14:48:56.614Z,28.34
2018-03-22T14:51:24.373Z,29.01
2018-03-22T14:53:51.909Z,30.23
2018-03-22T14:56:19.380Z,31.33
2018-03-22T14:58:47.360Z,31.00
2018-03-22T15:01:14.813Z,31.87
2018-03-22T15:03:42.278Z,31.88
2018-03-22T15:06:10.049Z,31.46
2018-03-22T15:08:37.525Z,34.65
2018-03-22T15:11:05.004Z,34.24
2018-03-22T15:13:33.662Z,34.31
2018-03-22T15:16:01.125Z,33.58
2018-03-22T15:18:28.586Z,32.41
2018-03-22T15:20:56.358Z,32.42
2018-03-22T15:23:23.828Z,32.30
2018-03-22T15:25:51.293Z,31.43
2018-03-22T15:28:19.074Z,32.64
2018-03-22T15:30:46.509Z,31.47
2018-03-22T15:33:13.975Z,33.44
2018-03-22T15:35:42.024Z,33.22
2018-03-22T15:38:09.492Z,32.05
2018-03-22T15:40:36.962Z,32.96
2018-03-22T15:43:05.017Z,31.67
2018-03-22T15:45:33.166Z,30.78
2018-03-22T15:48:00.641Z,32.91
2018-03-22T15:50:28.641Z,31.35
2018-03-22T15:52:56.109Z,31.65
2018-03-22T15:55:23.583Z,32.77
2018-03-22T15:57:51.328Z,32.85
2018-03-22T16:00:18.793Z,31.74
2018-03-22T16:02:46.249Z,31.63
2018-03-22T16:05:14.017Z,32.64
2018-03-22T16:07:41.484Z,31.86
2018-03-22T16:10:08.945Z,32.06
2018-03-22T16:12:36.689Z,31.67
2018-03-22T16:15:04.145Z,33.13
2018-03-22T16:17:31.617Z,33.26
2018-03-22T16:19:59.379Z,32.59
2018-03-22T16:22:26.842Z,33.50
2018-03-22T16:24:54.306Z,33.05
2018-03-22T16:27:22.069Z,32.91
2018-03-22T16:29:49.544Z,33.32
2018-03-22T16:32:17.025Z,33.67
2018-03-22T16:34:45.066Z,34.21
2018-03-22T16:37:12.529Z,35.21
2018-03-22T16:39:39.989Z,33.18
2018-03-22T16:42:07.757Z,33.61
2018-03-22T16:44:35.226Z,33.94
2018-03-22T16:47:03.353Z,33.91
2018-03-22T16:49:31.051Z,33.93
2018-03-22T16:51:58.517Z,32.74
2018-03-22T16:54:25.982Z,33.07
2018-03-22T16:56:53.745Z,32.93
2018-03-22T16:59:21.209Z,32.75
2018-03-22T17:01:48.670Z,34.38
2018-03-22T17:04:16.440Z,33.40
2018-03-22T17:06:43.899Z,35.18
2018-03-22T17:09:11.366Z,35.32
2018-03-22T17:11:39.108Z,35.66
2018-03-22T17:14:06.577Z,35.18
2018-03-22T17:16:34.043Z,35.40
2018-03-22T17:19:01.806Z,35.29
2018-03-22T17:21:29.308Z,34.85
2018-03-22T17:23:56.774Z,33.95
2018-03-22T17:26:24.765Z,34.22
2018-03-22T17:28:52.237Z,33.90
2018-03-22T17:31:19.705Z,33.97
2018-03-22T17:33:48.418Z,34.48
2018-03-22T17:36:15.889Z,34.13
2018-03-22T17:38:43.364Z,33.25
2018-03-22T17:41:11.106Z,34.22
2018-03-22T17:43:38.598Z,33.72
2018-03-22T17:46:06.066Z,33.71
2018-03-22T17:48:34.385Z,32.83
2018-03-22T17:51:01.840Z,33.31
2018-03-22T17:53:29.420Z,33.18
2018-03-22T17:55:57.389Z,34.37
2018-03-22T17:58:24.841Z,34.21
2018-03-22T18:00:52.302Z,33.77
2018-03-22T18:03:20.077Z,32.89
2018-03-22T18:05:47.540Z,35.26
2018-03-22T18:08:15.006Z,34.86
2018-03-22T18:10:42.767Z,34.98
2018-03-22T18:13:10.244Z,35.81
2018-03-22T18:15:37.725Z,34.95
2018-03-22T18:18:05.449Z,34.94
2018-03-22T18:20:32.906Z,34.96
2018-03-22T18:23:00.369Z,35.80
2018-03-22T18:25:28.168Z,35.44
2018-03-22T18:27:55.628Z,35.57
2018-03-22T18:30:23.095Z,34.97
2018-03-22T18:32:50.824Z,35.51
2018-03-22T18:35:18.336Z,35.37
2018-03-22T18:37:45.788Z,35.97
2018-03-22T18:40:13.550Z,35.33
2018-03-22T18:42:40.977Z,35.68
2018-03-22T18:45:08.441Z,36.22
2018-03-22T18:47:36.194Z,36.00
2018-03-22T18:50:04.341Z,35.89
2018-03-22T18:52:31.811Z,36.85
2018-03-22T18:54:59.809Z,36.18
2018-03-22T18:57:27.264Z,36.80
2018-03-22T18:59:54.737Z,37.67
2018-03-22T19:02:22.528Z,37.00
2018-03-22T19:04:50.001Z,37.41
2018-03-22T19:07:17.485Z,38.01
2018-03-22T19:09:45.177Z,38.57
2018-03-22T19:12:12.638Z,38.63
2018-03-22T19:14:40.099Z,37.94
2018-03-22T19:17:07.693Z,38.50
2018-03-22T19:19:35.159Z,38.48
2018-03-22T19:22:02.611Z,40.12
2018-03-22T19:24:30.565Z,40.39
2018-03-22T19:26:58.039Z,42.65
2018-03-22T19:29:25.504Z,43.90
2018-03-22T19:31:53.590Z,43.84
2018-03-22T19:34:21.031Z,43.67
2018-03-22T19:36:48.482Z,43.78
2018-03-22T19:39:16.852Z,42.35
2018-03-22T19:41:44.321Z,41.98
2018-03-22T19:44:11.794Z,41.76
2018-03-22T19:46:39.726Z,42.00
2018-03-22T19:49:07.182Z,43.50
2018-03-22T19:51:35.141Z,42.92
2018-03-22T19:54:02.857Z,43.98
2018-03-22T19:56:30.347Z,44.27
2018-03-22T19:58:58.137Z,44.35
2018-03-22T20:01:26.452Z,43.45
2018-03-22T20:03:53.981Z,44.25
2018-03-22T20:06:21.460Z,44.88
2018-03-22T20:08:49.487Z,45.54
2018-03-22T20:11:16.949Z,46.75
2018-03-22T20:13:44.407Z,45.76
2018-03-22T20:16:12.434Z,44.89
2018-03-22T20:18:39.898Z,44.98
2018-03-22T20:21:07.362Z,46.32
2018-03-22T20:23:35.738Z,45.33
2018-03-22T20:26:03.209Z,46.28
2018-03-22T20:28:31.023Z,45.42
2018-03-22T20:30:59.008Z,44.48
2018-03-22T20:33:26.505Z,46.31
2018-03-22T20:35:53.965Z,45.06
2018-03-22T20:38:21.721Z,47.50
2018-03-22T20:40:49.179Z,47.44
2018-03-22T20:43:16.656Z,46.62
2018-03-22T20:45:44.318Z,45.29
2018-03-22T20:48:11.777Z,45.92
2018-03-22T20:50:39.239Z,45.90
2018-03-22T20:53:07.106Z,45.65
2018-03-22T20:55:34.567Z,45.89
2018-03-22T20:58:02.022Z,48.43
2018-03-22T21:00:29.790Z,47.01
2018-03-22T21:02:57.256Z,48.51
2018-03-22T21:05:24.712Z,47.49
2018-03-22T21:07:52.741Z,47.72
2018-03-22T21:10:20.220Z,49.25
2018-03-22T21:12:47.686Z,52.26
2018-03-22T21:15:15.469Z,57.28
2018-03-22T21:17:42.932Z,57.09
2018-03-22T21:20:10.402Z,57.12
2018-03-22T21:22:38.153Z,57.38
2018-03-22T21:25:05.606Z,57.52
2018-03-22T21:27:33.060Z,57.93
2018-03-22T21:30:00.856Z,60.03
2018-03-22T21:32:28.312Z,61.31
2018-03-22T21:34:55.777Z,59.72
2018-03-22T21:37:23.526Z,60.69
2018-03-22T21:39:52.240Z,62.25
2018-03-22T21:42:19.699Z,62.44
2018-03-22T21:44:47.450Z,63.39
2018-03-22T21:47:26.537Z,66.00
2018-03-22T21:49:54.345Z,66.77
2018-03-22T21:52:33.568Z,69.80
2018-03-22T21:55:01.257Z,66.79
2018-03-22T21:57:28.721Z,68.59
2018-03-22T21:59:56.181Z,70.60
2018-03-22T22:02:23.936Z,68.25
2018-03-22T22:04:51.394Z,70.19
2018-03-22T22:07:18.860Z,70.49
2018-03-22T22:09:46.629Z,69.99
2018-03-22T22:12:14.090Z,73.27
2018-03-22T22:14:41.549Z,73.08
2018-03-22T22:17:09.317Z,72.47
2018-03-22T22:19:37.104Z,74.08
2018-03-22T22:22:04.568Z,72.38
2018-03-22T22:24:32.608Z,75.15
2018-03-22T22:27:00.114Z,77.15
2018-03-22T22:29:27.541Z,74.28
2018-03-22T22:31:55.303Z,73.84
2018-03-22T22:34:22.761Z,76.35
2018-03-22T22:36:50.219Z,75.41
2018-03-22T22:39:17.986Z,77.93
2018-03-22T22:41:47.361Z,78.96
2018-03-22T22:44:14.819Z,74.80
2018-03-22T22:46:42.406Z,76.70
2018-03-22T22:49:09.878Z,76.94
2018-03-22T22:51:37.346Z,77.79
2018-03-22T22:54:05.179Z,79.24
2018-03-22T22:56:32.641Z,79.45
2018-03-22T22:59:00.110Z,78.44
2018-03-22T23:01:28.505Z,83.32
2018-03-22T23:03:55.957Z,82.07
2018-03-22T23:06:24.477Z,80.42
2018-03-22T23:08:52.221Z,81.53
2018-03-22T23:11:19.688Z,81.21
2018-03-22T23:13:47.141Z,79.85
2018-03-22T23:16:15.108Z,81.44
2018-03-22T23:18:42.570Z,79.75
2018-03-22T23:21:10.021Z,80.52
2018-03-22T23:23:37.784Z,79.77
2018-03-22T23:26:05.243Z,78.48
2018-03-22T23:28:32.707Z,81.05
2018-03-22T23:31:00.485Z,81.93
2018-03-22T23:33:27.947Z,83.50
2018-03-22T23:35:55.408Z,85.41
2018-03-22T23:38:23.190Z,82.04
2018-03-22T23:40:50.645Z,84.54
2018-03-22T23:43:18.465Z,82.79
2018-03-22T23:45:46.338Z,84.14
2018-03-22T23:48:13.789Z,83.19
2018-03-22T23:50:41.245Z,83.43
2018-03-22T23:53:09.158Z,81.73
2018-03-22T23:55:36.609Z,83.16
2018-03-22T23:58:04.069Z,82.96
